Time;durP1;ratioP1;P1;durP2;ratioP2;P2;SDS_P1;SDS_P2;PMS_P1;PMS_P2;Temp;Humidity;BMP_temperature;BMP_pressure;BME280_temperature;BME280_humidity;BME280_pressure;Samples;Min_cycle;Max_cycle;Signal;HPM_P1;HPM_P2
2024/01/13 00:00:33;;;;;;;40.55;17.30;;;;;;;1.15;63.97;100227.72;5072486;28;20479;-39
2024/01/13 00:03:00;;;;;;;44.00;19.02;;;;;;;1.46;64.72;100233.78;5072345;28;20028;-41
2024/01/13 00:05:26;;;;;;;42.92;17.30;;;;;;;1.27;65.58;100233.69;5072332;28;20032;-39
2024/01/13 00:07:51;;;;;;;38.55;17.50;;;;;;;1.53;64.25;100224.41;5072061;28;20051;-39
2024/01/13 00:10:17;;;;;;;43.45;18.73;;;;;;;1.18;64.46;100224.81;5071949;28;20024;-39
2024/01/13 00:12:42;;;;;;;37.13;17.02;;;;;;;1.49;63.17;100235.31;5072042;28;20074;-36
2024/01/13 00:15:08;;;;;;;38.58;17.05;;;;;;;1.04;64.12;100228.63;5071569;28;20078;-39
2024/01/13 00:17:33;;;;;;;33.88;16.48;;;;;;;0.77;64.56;100234.41;5071581;28;20110;-39
2024/01/13 00:19:58;;;;;;;41.75;17.65;;;;;;;1.03;65.00;100221.72;5071520;28;20025;-38
2024/01/13 00:22:24;;;;;;;37.17;16.77;;;;;;;1.13;64.59;100227.84;5071762;28;20032;-36
2024/01/13 00:24:49;;;;;;;39.60;16.88;;;;;;;1.35;65.07;100223.38;5071822;28;20036;-38
2024/01/13 00:27:14;;;;;;;39.40;16.48;;;;;;;0.96;65.02;100225.81;5071687;28;20025;-39
2024/01/13 00:29:40;;;;;;;41.75;18.15;;;;;;;0.94;67.30;100231.19;5071385;28;20063;-37
2024/01/13 00:32:05;;;;;;;39.13;17.83;;;;;;;1.17;65.66;100237.09;5071614;28;20017;-37
2024/01/13 00:34:31;;;;;;;36.33;16.20;;;;;;;1.25;65.61;100223.34;5071229;28;20024;-39
2024/01/13 00:36:56;;;;;;;33.97;15.85;;;;;;;0.69;65.97;100229.81;5071438;28;20045;-39
2024/01/13 00:39:21;;;;;;;38.53;17.50;;;;;;;0.76;67.48;100233.56;5071166;28;20020;-41
2024/01/13 00:41:47;;;;;;;39.47;17.60;;;;;;;0.94;67.63;100238.22;5070832;28;20028;-39
2024/01/13 00:44:12;;;;;;;39.40;16.65;;;;;;;0.71;65.93;100227.06;5071152;28;20468;-38
2024/01/13 00:46:37;;;;;;;39.22;17.25;;;;;;;0.96;66.65;100231.06;5071226;28;20115;-38
2024/01/13 00:49:03;;;;;;;37.70;15.98;;;;;;;0.80;65.37;100230.69;5071156;28;20024;-39
2024/01/13 00:51:30;;;;;;;41.67;17.42;;;;;;;1.08;66.02;100230.00;5072098;28;20032;-38
2024/01/13 00:53:55;;;;;;;37.70;16.83;;;;;;;0.99;66.20;100233.44;5072064;28;20032;-40
2024/01/13 00:56:21;;;;;;;40.83;17.40;;;;;;;1.02;66.01;100225.28;5071786;28;20396;-39
2024/01/13 00:58:46;;;;;;;36.03;16.58;;;;;;;1.20;64.62;100220.31;5071630;28;20020;-40
2024/01/13 01:01:13;;;;;;;35.97;15.20;;;;;;;0.42;65.10;100226.84;5071262;28;20112;-38
2024/01/13 01:03:38;;;;;;;39.35;17.05;;;;;;;0.57;67.19;100226.41;5071346;28;20024;-39
2024/01/13 01:06:04;;;;;;;37.03;16.75;;;;;;;0.47;67.25;100227.28;5071835;28;20025;-39
2024/01/13 01:08:29;;;;;;;39.75;16.73;;;;;;;0.48;68.76;100223.72;5071400;28;20036;-39
2024/01/13 01:10:55;;;;;;;38.22;16.48;;;;;;;0.75;65.63;100221.41;5071337;28;20081;-37
2024/01/13 01:13:20;;;;;;;40.92;17.00;;;;;;;0.44;67.79;100224.91;5071282;28;20012;-38
2024/01/13 01:15:46;;;;;;;36.97;15.95;;;;;;;0.62;67.27;100225.19;5071161;28;20033;-38
2024/01/13 01:18:11;;;;;;;40.10;16.42;;;;;;;0.12;67.90;100223.16;5071365;28;20427;-38
2024/01/13 01:20:36;;;;;;;35.13;15.65;;;;;;;0.38;67.70;100218.38;5071065;28;20484;-38
2024/01/13 01:23:02;;;;;;;41.15;17.48;;;;;;;0.27;67.17;100216.69;5071216;28;20086;-38
2024/01/13 01:25:27;;;;;;;38.50;16.58;;;;;;;0.51;67.12;100215.59;5071130;28;20415;-35
2024/01/13 01:27:52;;;;;;;38.45;16.90;;;;;;;0.64;67.85;100226.72;5071041;28;20468;-37
2024/01/13 01:30:18;;;;;;;39.40;15.70;;;;;;;0.70;66.94;100215.72;5071264;28;20055;-35
2024/01/13 01:32:43;;;;;;;40.15;17.13;;;;;;;0.45;65.99;100216.94;5071013;28;20082;-35
2024/01/13 01:35:08;;;;;;;41.20;16.80;;;;;;;0.86;66.47;100219.72;5070948;28;20035;-35
2024/01/13 01:37:34;;;;;;;40.10;15.98;;;;;;;0.63;65.26;100205.88;5071340;28;20028;-38
2024/01/13 01:40:00;;;;;;;37.80;16.05;;;;;;;0.75;67.03;100208.31;5071069;28;20078;-37
2024/01/13 01:42:25;;;;;;;39.03;16.92;;;;;;;0.88;64.85;100202.88;5070837;28;20039;-38
2024/01/13 01:44:51;;;;;;;37.10;16.73;;;;;;;0.77;64.73;100198.53;5070952;28;20028;-37
2024/01/13 01:47:19;;;;;;;33.78;15.32;;;;;;;1.02;63.70;100204.31;5071243;28;20020;-39
2024/01/13 01:49:46;;;;;;;31.33;14.30;;;;;;;0.48;64.89;100200.16;5070504;28;20025;-36
2024/01/13 01:52:12;;;;;;;31.83;14.77;;;;;;;0.48;65.77;100197.53;5070237;28;20453;-38
2024/01/13 01:54:38;;;;;;;37.38;15.65;;;;;;;0.70;63.66;100194.78;5070732;28;20024;-39
2024/01/13 01:57:04;;;;;;;32.50;14.55;;;;;;;0.42;64.63;100190.16;5070268;28;20020;-39
2024/01/13 01:59:30;;;;;;;33.10;14.65;;;;;;;0.76;64.24;100196.03;5070823;28;20025;-36
2024/01/13 02:01:58;;;;;;;37.60;14.40;;;;;;;0.92;64.12;100190.34;5070778;28;20115;-37
2024/01/13 02:04:24;;;;;;;28.30;13.10;;;;;;;0.54;63.60;100183.94;5070565;28;20021;-38
2024/01/13 02:06:50;;;;;;;33.78;13.85;;;;;;;0.58;63.51;100191.38;5070852;28;20020;-37
2024/01/13 02:09:16;;;;;;;27.98;13.57;;;;;;;0.34;64.99;100181.19;5070695;28;20487;-38
2024/01/13 02:11:42;;;;;;;32.13;12.40;;;;;;;0.44;63.37;100193.50;5070659;28;20028;-35
2024/01/13 02:14:07;;;;;;;28.80;13.43;;;;;;;0.32;63.85;100190.09;5073402;28;20028;-38
2024/01/13 02:16:32;;;;;;;32.75;13.98;;;;;;;0.43;63.85;100186.59;5074244;28;20115;-38
2024/01/13 02:18:58;;;;;;;30.35;13.43;;;;;;;0.36;64.53;100197.59;5074400;28;20025;-38
2024/01/13 02:21:23;;;;;;;30.73;12.13;;;;;;;0.02;66.55;100198.66;5074352;28;20035;-38
2024/01/13 02:23:48;;;;;;;27.58;12.65;;;;;;;0.54;63.07;100187.38;5072857;28;20031;-38
2024/01/13 02:26:14;;;;;;;25.65;12.40;;;;;;;0.65;61.91;100196.97;5074417;28;20027;-38
2024/01/13 02:28:39;;;;;;;25.95;11.05;;;;;;;0.27;62.17;100187.06;5072763;28;20037;-37
2024/01/13 02:31:05;;;;;;;28.55;11.73;;;;;;;0.10;62.59;100193.66;5074429;28;20107;-38
2024/01/13 02:33:30;;;;;;;24.52;12.13;;;;;;;0.13;63.85;100182.94;5074213;28;20495;-35
2024/01/13 02:35:55;;;;;;;27.33;12.10;;;;;;;0.24;63.06;100188.13;5074085;28;20028;-35
2024/01/13 02:38:21;;;;;;;23.50;10.85;;;;;;;-0.06;62.45;100184.44;5073746;28;20025;-38
2024/01/13 02:40:46;;;;;;;24.25;11.50;;;;;;;0.28;61.75;100176.44;5074322;28;20106;-37
2024/01/13 02:43:11;;;;;;;24.25;10.60;;;;;;;0.23;61.07;100176.00;5073928;28;20020;-38
2024/01/13 02:45:37;;;;;;;24.50;11.73;;;;;;;0.53;61.13;100179.63;5074142;28;20103;-36
2024/01/13 02:48:09;;;;;;;25.70;10.75;;;;;;;0.26;61.02;100173.09;5074100;28;20698;-38
2024/01/13 02:50:34;;;;;;;25.33;11.82;;;;;;;-0.07;62.14;100180.16;5073383;28;20021;-38
2024/01/13 02:52:59;;;;;;;26.98;11.18;;;;;;;0.34;60.92;100182.94;5074105;28;20025;-38
2024/01/13 02:55:25;;;;;;;23.90;10.63;;;;;;;0.13;61.47;100181.16;5073608;28;20056;-35
2024/01/13 02:57:50;;;;;;;24.70;10.45;;;;;;;0.02;61.02;100180.34;5073734;28;20052;-38
2024/01/13 03:00:17;;;;;;;23.05;10.35;;;;;;;0.36;61.06;100176.66;5073626;28;20452;-38
2024/01/13 03:02:43;;;;;;;24.08;10.68;;;;;;;0.14;60.33;100180.19;5073795;28;20397;-39
2024/01/13 03:05:09;;;;;;;25.23;11.00;;;;;;;0.61;60.28;100189.47;5073853;28;20177;-38
2024/01/13 03:07:35;;;;;;;22.77;10.32;;;;;;;0.16;62.11;100198.38;5073233;28;20490;-37
2024/01/13 03:10:00;;;;;;;23.65;11.05;;;;;;;0.42;60.40;100192.78;5073310;28;20431;-39
2024/01/13 03:12:26;;;;;;;21.35;10.27;;;;;;;0.15;59.63;100204.56;5073400;28;20058;-36
2024/01/13 03:14:51;;;;;;;27.08;11.07;;;;;;;0.55;58.80;100196.91;5073341;28;20045;-36
2024/01/13 03:17:16;;;;;;;24.65;10.57;;;;;;;0.56;58.31;100202.97;5072740;28;20059;-35
2024/01/13 03:19:42;;;;;;;23.30;10.93;;;;;;;0.47;59.11;100201.09;5073512;28;20058;-36
2024/01/13 03:22:07;;;;;;;21.38;9.88;;;;;;;0.21;58.91;100206.72;5073296;28;20016;-38
2024/01/13 03:24:33;;;;;;;24.75;10.55;;;;;;;0.37;58.21;100199.25;5071978;28;20432;-37
2024/01/13 03:26:58;;;;;;;24.67;10.50;;;;;;;0.46;58.51;100202.91;5073217;28;20063;-36
2024/01/13 03:29:23;;;;;;;22.48;9.98;;;;;;;-0.12;58.89;100211.06;5073316;28;20044;-38
2024/01/13 03:31:49;;;;;;;21.20;10.10;;;;;;;0.29;59.10;100222.63;5073380;28;20031;-36
2024/01/13 03:34:14;;;;;;;19.70;8.90;;;;;;;0.05;58.65;100230.66;5073337;28;20380;-37
2024/01/13 03:36:39;;;;;;;27.60;10.88;;;;;;;0.19;59.08;100227.78;5072881;28;20115;-36
2024/01/13 03:39:05;;;;;;;18.63;8.50;;;;;;;0.13;58.08;100243.13;5073020;28;20029;-38
2024/01/13 03:41:31;;;;;;;23.80;10.13;;;;;;;0.10;58.76;100228.50;5072670;28;20028;-37
2024/01/13 03:43:57;;;;;;;23.48;10.10;;;;;;;0.04;58.57;100218.53;5073309;28;20044;-35
2024/01/13 03:46:23;;;;;;;20.35;9.50;;;;;;;0.20;59.43;100233.81;5073182;28;20103;-37
2024/01/13 03:48:49;;;;;;;26.02;10.23;;;;;;;0.14;60.74;100236.94;5073093;28;20111;-40
2024/01/13 03:51:16;;;;;;;19.33;8.75;;;;;;;-0.05;59.17;100240.22;5072761;28;20024;-38
2024/01/13 03:53:41;;;;;;;25.20;10.88;;;;;;;0.21;59.93;100239.88;5072591;28;20040;-36
2024/01/13 03:56:08;;;;;;;26.65;9.82;;;;;;;0.03;58.65;100237.81;5073006;28;20102;-38
2024/01/13 03:58:34;;;;;;;23.42;10.32;;;;;;;-0.17;59.61;100239.41;5072595;28;20457;-39
2024/01/13 04:01:00;;;;;;;23.98;10.25;;;;;;;-0.25;59.87;100239.16;5073243;28;20028;-38
2024/01/13 04:03:25;;;;;;;26.90;11.23;;;;;;;0.19;59.24;100240.00;5072614;28;20374;-38
2024/01/13 04:05:50;;;;;;;24.10;10.23;;;;;;;-0.27;59.62;100238.47;5072620;28;20028;-39
2024/01/13 04:08:16;;;;;;;21.67;9.77;;;;;;;-0.25;60.64;100236.56;5072417;28;20028;-36
2024/01/13 04:10:42;;;;;;;20.77;9.73;;;;;;;-0.20;58.86;100244.88;5072388;28;20024;-38
2024/01/13 04:13:11;;;;;;;25.13;10.70;;;;;;;0.14;59.13;100245.63;5072225;28;20032;-38
2024/01/13 04:15:37;;;;;;;22.17;10.02;;;;;;;0.27;57.96;100234.19;5071777;28;20496;-37
2024/01/13 04:18:02;;;;;;;22.60;10.35;;;;;;;-0.03;58.45;100236.50;5072545;28;20036;-38
2024/01/13 04:20:28;;;;;;;23.45;10.25;;;;;;;0.49;57.78;100220.13;5072018;28;20454;-39
2024/01/13 04:22:53;;;;;;;23.98;9.98;;;;;;;0.21;58.39;100219.81;5071622;28;20427;-35
2024/01/13 04:25:18;;;;;;;23.80;10.57;;;;;;;-0.28;58.65;100219.34;5072277;28;20498;-38
2024/01/13 04:27:44;;;;;;;23.48;9.57;;;;;;;0.07;58.43;100225.31;5070675;28;20480;-37
2024/01/13 04:30:10;;;;;;;23.10;10.82;;;;;;;0.36;57.25;100222.94;5071972;28;20035;-39
2024/01/13 04:32:35;;;;;;;22.88;10.15;;;;;;;0.51;57.52;100224.28;5071900;28;20107;-36
2024/01/13 04:35:00;;;;;;;25.30;10.68;;;;;;;0.31;57.09;100231.16;5071837;28;20028;-39
2024/01/13 04:37:26;;;;;;;27.70;10.43;;;;;;;0.74;56.61;100225.00;5071674;28;20036;-36
2024/01/13 04:39:51;;;;;;;22.77;10.38;;;;;;;0.50;56.71;100238.34;5072030;28;20021;-39
2024/01/13 04:42:16;;;;;;;24.05;10.90;;;;;;;0.72;56.47;100233.94;5071801;28;20103;-38
2024/01/13 04:44:42;;;;;;;25.58;10.63;;;;;;;0.58;56.41;100245.56;5071885;28;20036;-38
2024/01/13 04:47:07;;;;;;;25.65;11.82;;;;;;;0.38;56.49;100240.19;5071776;28;20036;-39
2024/01/13 04:49:33;;;;;;;22.50;10.13;;;;;;;0.62;58.37;100233.06;5071510;28;20035;-38
2024/01/13 04:51:58;;;;;;;20.60;9.80;;;;;;;0.44;56.34;100240.63;5071684;28;20491;-38
2024/01/13 04:54:23;;;;;;;21.70;10.15;;;;;;;0.48;56.59;100228.97;5071695;28;20477;-36
2024/01/13 04:56:49;;;;;;;26.05;10.45;;;;;;;0.62;56.64;100233.88;5071474;28;20040;-39
2024/01/13 04:59:14;;;;;;;17.88;9.30;;;;;;;0.12;56.26;100231.84;5071714;28;20022;-39
2024/01/13 05:01:39;;;;;;;23.13;10.05;;;;;;;0.06;56.67;100236.72;5071414;28;20024;-40
2024/01/13 05:04:05;;;;;;;22.75;10.13;;;;;;;0.27;55.68;100235.00;5072013;28;20089;-39
2024/01/13 05:06:30;;;;;;;20.55;9.65;;;;;;;0.25;57.25;100236.91;5072020;28;20060;-37
2024/01/13 05:08:55;;;;;;;22.15;11.07;;;;;;;0.43;56.33;100233.75;5071244;28;20112;-40
2024/01/13 05:11:21;;;;;;;21.30;10.15;;;;;;;0.86;54.82;100231.00;5071492;28;20089;-39
2024/01/13 05:13:46;;;;;;;24.50;9.38;;;;;;;0.81;55.04;100232.34;5071518;28;20028;-40
2024/01/13 05:16:11;;;;;;;22.63;10.57;;;;;;;0.63;56.10;100229.47;5071458;28;20067;-40
2024/01/13 05:18:37;;;;;;;21.15;9.10;;;;;;;0.08;55.60;100224.38;5071779;28;20476;-37
2024/01/13 05:21:02;;;;;;;23.95;10.10;;;;;;;0.24;56.77;100232.63;5071555;28;20029;-36
2024/01/13 05:23:28;;;;;;;25.80;10.85;;;;;;;0.33;56.49;100226.63;5071525;28;20033;-39
2024/01/13 05:25:53;;;;;;;21.88;9.25;;;;;;;0.16;55.10;100224.56;5072023;28;20021;-39
2024/01/13 05:28:19;;;;;;;23.75;10.27;;;;;;;0.24;56.02;100214.28;5071660;28;20024;-40
2024/01/13 05:30:44;;;;;;;24.63;10.38;;;;;;;0.21;55.49;100230.28;5071839;28;20028;-40
2024/01/13 05:33:10;;;;;;;23.90;10.52;;;;;;;0.23;57.03;100225.75;5071852;28;20497;-40
2024/01/13 05:35:35;;;;;;;25.48;10.88;;;;;;;0.67;54.71;100225.66;5071750;28;20033;-40
2024/01/13 05:38:00;;;;;;;22.45;10.20;;;;;;;0.41;55.53;100227.81;5071678;28;20396;-40
2024/01/13 05:40:26;;;;;;;23.02;10.00;;;;;;;-0.02;55.70;100232.97;5071639;28;20028;-39
2024/01/13 05:42:51;;;;;;;23.42;10.20;;;;;;;0.13;57.52;100224.81;5071409;28;20073;-38
2024/01/13 05:45:17;;;;;;;21.13;10.30;;;;;;;0.84;63.70;100211.13;5071402;28;20165;-39
2024/01/13 05:47:42;;;;;;;21.38;10.27;;;;;;;0.54;56.53;100213.56;5071494;28;20067;-38
2024/01/13 05:50:08;;;;;;;23.08;10.32;;;;;;;0.44;56.19;100215.28;5075353;28;20078;-39
2024/01/13 05:52:36;;;;;;;23.50;10.73;;;;;;;0.12;58.12;100200.44;5075558;28;20108;-39
2024/01/13 05:55:03;;;;;;;27.30;11.35;;;;;;;0.25;60.24;100204.66;5075356;28;20534;-39
2024/01/13 05:57:28;;;;;;;28.70;12.55;;;;;;;0.25;60.81;100196.78;5075143;28;20484;-38
2024/01/13 05:59:53;;;;;;;26.80;11.82;;;;;;;0.33;56.41;100197.84;5075486;28;20036;-39
2024/01/13 06:02:19;;;;;;;25.35;11.73;;;;;;;0.02;59.46;100190.81;5075327;28;20024;-38
2024/01/13 06:04:46;;;;;;;26.67;11.75;;;;;;;-0.32;57.91;100198.78;5075297;28;20494;-39
2024/01/13 06:07:11;;;;;;;25.27;11.60;;;;;;;-0.24;57.59;100191.97;5075325;28;20028;-40
2024/01/13 06:09:39;;;;;;;25.17;11.43;;;;;;;-0.21;57.41;100191.75;5075051;28;20396;-38
2024/01/13 06:12:06;;;;;;;22.42;9.88;;;;;;;-0.76;58.38;100195.25;5074792;28;20727;-38
2024/01/13 06:14:31;;;;;;;23.73;10.32;;;;;;;-0.56;58.37;100201.53;5074596;28;20032;-38
2024/01/13 06:16:57;;;;;;;23.15;10.55;;;;;;;-0.55;58.04;100200.56;5074251;28;20048;-36
2024/01/13 06:19:22;;;;;;;24.05;10.57;;;;;;;-0.61;58.52;100186.19;5074487;28;20471;-39
2024/01/13 06:21:48;;;;;;;27.92;11.07;;;;;;;-0.07;57.14;100193.22;5074709;28;20021;-41
2024/01/13 06:24:13;;;;;;;24.77;10.25;;;;;;;-0.10;56.89;100203.13;5075234;28;20024;-37
2024/01/13 06:26:40;;;;;;;25.55;10.88;;;;;;;-0.12;57.21;100199.78;5074869;28;20032;-39
2024/01/13 06:29:06;;;;;;;27.17;10.80;;;;;;;0.18;56.13;100192.06;5074246;28;20090;-39
2024/01/13 06:31:32;;;;;;;20.67;8.80;;;;;;;0.24;55.86;100190.72;5074026;28;20039;-40
2024/01/13 06:33:57;;;;;;;27.00;11.10;;;;;;;0.67;55.25;100188.97;5073657;28;20407;-37
2024/01/13 06:36:23;;;;;;;25.23;10.02;;;;;;;0.18;54.79;100186.81;5074135;28;20086;-40
2024/01/13 06:38:48;;;;;;;27.02;12.25;;;;;;;0.47;54.41;100183.59;5073924;28;20449;-40
2024/01/13 06:41:13;;;;;;;32.28;12.80;;;;;;;0.52;54.29;100186.66;5074010;28;20095;-40
2024/01/13 06:43:39;;;;;;;27.60;10.57;;;;;;;0.30;55.00;100189.41;5074359;28;20620;-40
2024/01/13 06:46:07;;;;;;;23.25;10.45;;;;;;;1.02;52.41;100182.53;5073829;28;20491;-39
2024/01/13 06:48:32;;;;;;;28.30;10.73;;;;;;;1.13;52.35;100192.94;5073813;28;20059;-43
2024/01/13 06:50:58;;;;;;;24.13;10.40;;;;;;;1.01;51.99;100186.09;5073720;28;20028;-39
2024/01/13 06:53:23;;;;;;;21.02;9.75;;;;;;;0.80;52.01;100200.09;5073738;28;20028;-39
2024/01/13 06:55:48;;;;;;;21.98;9.68;;;;;;;0.75;52.28;100192.59;5073242;28;20074;-38
2024/01/13 06:58:14;;;;;;;20.02;9.77;;;;;;;1.02;52.10;100193.84;5073458;28;20405;-41
2024/01/13 07:00:39;;;;;;;19.92;9.93;;;;;;;1.06;53.19;100204.91;5073283;28;20032;-38
2024/01/13 07:03:04;;;;;;;21.25;9.93;;;;;;;1.44;52.26;100201.59;5073684;28;20028;-39
2024/01/13 07:05:30;;;;;;;20.27;9.10;;;;;;;1.36;50.45;100196.19;5072628;28;20060;-38
2024/01/13 07:07:59;;;;;;;23.02;9.75;;;;;;;1.59;50.33;100196.00;5073244;28;20031;-40
2024/01/13 07:10:25;;;;;;;22.70;9.60;;;;;;;1.55;50.16;100206.75;5072559;28;20033;-39
2024/01/13 07:12:50;;;;;;;21.55;10.00;;;;;;;1.80;50.11;100203.78;5073391;28;20035;-39
2024/01/13 07:15:16;;;;;;;23.52;10.25;;;;;;;1.54;49.50;100199.84;5073346;28;20481;-39
2024/01/13 07:17:41;;;;;;;22.20;10.27;;;;;;;2.19;49.41;100207.28;5073112;28;20028;-39
2024/01/13 07:20:07;;;;;;;19.00;8.25;;;;;;;2.32;47.54;100204.34;5072015;28;20027;-40
2024/01/13 07:22:34;;;;;;;20.58;10.77;;;;;;;2.39;48.39;100194.94;5072406;28;20020;-41
2024/01/13 07:24:59;;;;;;;22.45;9.45;;;;;;;2.02;48.09;100202.69;5071971;28;20045;-40
2024/01/13 07:27:25;;;;;;;23.00;10.05;;;;;;;3.49;59.86;100209.31;5071655;28;20529;-39
2024/01/13 07:29:50;;;;;;;25.38;10.30;;;;;;;3.15;50.25;100207.25;5071808;28;20028;-38
2024/01/13 07:32:16;;;;;;;24.65;11.25;;;;;;;3.03;47.35;100216.28;5071934;28;20466;-40
2024/01/13 07:34:42;;;;;;;21.27;9.25;;;;;;;2.85;47.33;100224.06;5072085;28;20107;-41
2024/01/13 07:37:07;;;;;;;36.17;11.63;;;;;;;3.34;47.05;100216.84;5072301;28;20035;-42
2024/01/13 07:39:32;;;;;;;20.88;10.77;;;;;;;2.54;47.58;100219.00;5072303;28;20063;-41
2024/01/13 07:41:58;;;;;;;24.75;10.73;;;;;;;3.16;49.14;100229.94;5072307;28;20052;-40
2024/01/13 07:44:23;;;;;;;21.88;10.55;;;;;;;2.33;47.81;100230.47;5072510;28;20025;-41
2024/01/13 07:46:48;;;;;;;24.10;11.10;;;;;;;2.99;49.03;100228.03;5072242;28;20433;-40
2024/01/13 07:49:14;;;;;;;21.10;10.07;;;;;;;3.25;47.48;100225.63;5072470;28;20412;-40
2024/01/13 07:51:39;;;;;;;25.45;10.15;;;;;;;2.97;46.45;100220.31;5072480;28;20102;-41
2024/01/13 07:54:05;;;;;;;20.83;9.43;;;;;;;2.47;46.24;100226.59;5072029;28;20044;-39
2024/01/13 07:56:30;;;;;;;19.83;8.88;;;;;;;2.91;45.64;100223.50;5071974;28;20028;-40
2024/01/13 07:58:56;;;;;;;22.23;10.57;;;;;;;3.82;48.57;100213.13;5072531;28;20031;-41
2024/01/13 08:01:21;;;;;;;18.27;9.25;;;;;;;4.04;44.67;100219.81;5060190;28;20028;-39
2024/01/13 08:03:47;;;;;;;21.50;9.48;;;;;;;4.35;48.02;100221.25;5069174;28;20024;-40
2024/01/13 08:06:13;;;;;;;20.90;10.18;;;;;;;5.59;50.83;100213.09;5071991;28;20587;-41
2024/01/13 08:08:38;;;;;;;21.90;10.88;;;;;;;6.52;45.46;100218.25;5071769;28;20032;-40
2024/01/13 08:11:06;;;;;;;21.70;10.55;;;;;;;6.69;39.71;100216.44;5071467;28;20185;-39
2024/01/13 08:13:32;;;;;;;21.95;10.25;;;;;;;7.20;37.62;100208.25;5072201;28;20031;-41
2024/01/13 08:15:58;;;;;;;21.33;10.60;;;;;;;5.12;40.01;100210.91;5072085;28;20052;-40
2024/01/13 08:18:24;;;;;;;21.67;10.85;;;;;;;5.11;39.71;100210.06;5071659;28;20025;-37
2024/01/13 08:20:50;;;;;;;22.08;11.15;;;;;;;5.33;40.18;100216.63;5071877;28;20048;-40
2024/01/13 08:23:15;;;;;;;23.02;11.13;;;;;;;6.22;39.08;100217.06;5072162;28;20031;-40
2024/01/13 08:25:41;;;;;;;21.25;10.45;;;;;;;5.93;38.76;100220.97;5071904;28;20055;-40
2024/01/13 08:28:06;;;;;;;22.58;10.98;;;;;;;5.84;38.24;100222.75;5071436;28;20064;-37
2024/01/13 08:30:32;;;;;;;22.40;10.77;;;;;;;4.89;39.82;100220.19;5071401;28;20024;-41
2024/01/13 08:32:57;;;;;;;22.08;10.60;;;;;;;5.06;39.80;100228.19;5071331;28;20024;-43
2024/01/13 08:35:22;;;;;;;27.58;12.93;;;;;;;5.09;39.55;100226.06;5071690;28;20035;-38
2024/01/13 08:37:51;;;;;;;22.13;11.52;;;;;;;5.39;39.61;100229.19;5071506;28;20031;-39
2024/01/13 08:40:16;;;;;;;23.75;11.98;;;;;;;5.33;39.92;100229.84;5066662;28;20094;-41
2024/01/13 08:42:42;;;;;;;20.85;9.65;;;;;;;4.57;40.20;100228.69;5071998;28;20017;-42
2024/01/13 08:45:08;;;;;;;20.60;10.77;;;;;;;4.60;40.86;100227.53;5071911;28;20545;-38
2024/01/13 08:47:33;;;;;;;20.67;10.50;;;;;;;4.44;40.93;100225.59;5071533;28;20472;-38
2024/01/13 08:49:58;;;;;;;20.52;10.18;;;;;;;4.23;41.52;100229.38;5071395;28;20107;-40
2024/01/13 08:52:24;;;;;;;19.23;9.95;;;;;;;4.06;42.36;100231.00;5071956;28;20025;-37
2024/01/13 08:54:49;;;;;;;19.35;9.48;;;;;;;4.30;41.47;100233.06;5071427;28;20107;-39
2024/01/13 08:57:14;;;;;;;22.83;10.23;;;;;;;3.99;42.28;100215.97;5072015;28;20114;-39
2024/01/13 08:59:40;;;;;;;21.25;10.90;;;;;;;4.23;42.19;100216.19;5070236;28;20109;-40
2024/01/13 09:02:06;;;;;;;22.30;10.55;;;;;;;4.55;41.12;100217.47;5071217;28;20037;-38
2024/01/13 09:04:32;;;;;;;18.38;9.65;;;;;;;3.81;42.35;100198.34;5071210;28;20027;-37
2024/01/13 09:06:57;;;;;;;21.13;9.68;;;;;;;4.13;41.81;100206.69;5070906;28;20024;-39
2024/01/13 09:09:22;;;;;;;18.88;8.70;;;;;;;4.03;42.56;100201.50;5071181;28;20036;-41
2024/01/13 09:11:48;;;;;;;19.08;9.10;;;;;;;3.83;42.94;100192.94;5071058;28;20477;-39
2024/01/13 09:14:13;;;;;;;24.52;9.70;;;;;;;4.13;42.28;100183.81;5071324;28;20024;-38
2024/01/13 09:16:39;;;;;;;22.23;9.95;;;;;;;4.68;42.19;100185.41;5071150;28;20047;-38
2024/01/13 09:19:04;;;;;;;17.15;9.15;;;;;;;4.47;41.76;100186.59;5071459;28;20507;-40
2024/01/13 09:21:30;;;;;;;16.83;8.43;;;;;;;3.62;42.24;100180.84;5070816;28;20025;-39
2024/01/13 09:23:55;;;;;;;20.75;9.70;;;;;;;4.29;42.67;100165.53;5069919;28;20024;-40
2024/01/13 09:26:21;;;;;;;18.52;8.98;;;;;;;3.78;42.09;100164.41;5070852;28;20092;-40
2024/01/13 09:28:46;;;;;;;19.48;9.40;;;;;;;4.04;41.82;100161.84;5070893;28;20038;-41
2024/01/13 09:31:11;;;;;;;16.95;9.18;;;;;;;3.57;41.88;100155.94;5070812;28;20088;-42
2024/01/13 09:33:37;;;;;;;15.55;8.00;;;;;;;3.50;42.54;100138.13;5070782;28;20025;-39
2024/01/13 09:36:02;;;;;;;19.00;8.75;;;;;;;3.80;42.67;100133.47;5064091;28;20469;-40
2024/01/13 09:38:27;;;;;;;15.73;7.88;;;;;;;3.51;42.19;100118.72;5066370;28;20043;-41
2024/01/13 09:40:53;;;;;;;21.23;9.07;;;;;;;3.89;41.67;100118.59;5071097;28;20029;-41
2024/01/13 09:43:21;;;;;;;18.17;9.40;;;;;;;4.10;41.37;100132.28;5070583;28;20028;-39
2024/01/13 09:45:51;;;;;;;16.40;7.40;;;;;;;3.36;42.00;100114.13;5070903;28;20029;-43
2024/01/13 09:48:18;;;;;;;;;;;;;;;3.46;43.30;100120.94;5070858;28;20047;-40
2024/01/13 09:50:55;;;;;;;17.55;7.65;;;;;;;3.63;42.27;100107.97;5068889;28;19912;-41
2024/01/13 09:53:29;;;;;;;16.23;8.45;;;;;;;3.86;41.96;100093.38;5050395;28;20171;-41
2024/01/13 09:56:03;;;;;;;18.42;8.55;;;;;;;4.07;40.82;100092.22;5049919;28;20532;-43
2024/01/13 09:58:29;;;;;;;17.70;8.52;;;;;;;4.39;40.52;100086.38;5049234;28;20533;-40
2024/01/13 10:00:55;;;;;;;15.70;8.32;;;;;;;3.60;41.64;100090.69;5059522;28;20016;-39
2024/01/13 10:03:21;;;;;;;15.77;8.35;;;;;;;3.98;42.06;100077.34;5070370;28;20036;-40
2024/01/13 10:05:47;;;;;;;17.33;8.23;;;;;;;3.73;41.65;100066.59;5070198;28;20389;-42
2024/01/13 10:08:13;;;;;;;18.98;8.20;;;;;;;3.97;41.35;100086.25;5070297;28;20106;-28
2024/01/13 10:10:38;;;;;;;16.90;9.23;;;;;;;3.98;41.01;100083.47;5070091;28;20050;-28
2024/01/13 10:13:06;;;;;;;18.02;8.63;;;;;;;3.88;41.18;100070.38;5069872;28;20024;-27
2024/01/13 10:15:33;;;;;;;15.95;7.85;;;;;;;3.75;41.02;100063.81;5069264;28;20067;-26
2024/01/13 10:18:00;;;;;;;17.67;8.25;;;;;;;3.66;41.79;100069.03;5069892;28;20036;-29
2024/01/13 10:20:26;;;;;;;13.07;6.88;;;;;;;3.30;42.30;100078.69;5070581;28;20023;-26
2024/01/13 10:22:51;;;;;;;18.35;7.93;;;;;;;3.03;42.77;100075.13;5069978;28;20017;-27
2024/01/13 10:25:17;;;;;;;17.10;8.05;;;;;;;3.23;42.58;100072.38;5070145;28;20510;-27
2024/01/13 10:27:44;;;;;;;16.38;7.13;;;;;;;3.24;42.97;100061.72;5069944;28;20031;-28
2024/01/13 10:30:11;;;;;;;17.27;8.50;;;;;;;3.57;42.65;100058.56;5069886;28;20489;-27
2024/01/13 10:32:36;;;;;;;17.67;8.63;;;;;;;3.98;42.11;100057.13;5070472;28;20052;-29
2024/01/13 10:35:02;;;;;;;17.70;8.65;;;;;;;4.46;41.25;100049.69;5072623;28;20484;-27
2024/01/13 10:37:27;;;;;;;17.90;8.63;;;;;;;4.28;41.13;100057.66;5073493;28;20110;-27
2024/01/13 10:39:53;;;;;;;16.92;8.50;;;;;;;4.44;40.83;100054.31;5073307;28;20435;-26
2024/01/13 10:42:24;;;;;;;16.42;7.68;;;;;;;4.05;41.86;100059.97;5073462;28;20035;-27
2024/01/13 10:45:00;;;;;;;20.45;9.02;;;;;;;4.22;41.23;100051.19;5073904;28;20060;-27
2024/01/13 10:47:31;;;;;;;18.70;8.23;;;;;;;4.10;41.12;100034.81;5073658;28;20292;-27
2024/01/13 10:49:59;;;;;;;17.52;9.15;;;;;;;4.11;41.57;100046.16;5073652;28;20158;-26
2024/01/13 10:52:37;;;;;;;17.47;8.23;;;;;;;4.20;41.40;100033.88;5073686;28;20028;-27
2024/01/13 10:55:04;;;;;;;17.25;7.85;;;;;;;3.56;42.20;100041.13;5073506;28;20105;-27
2024/01/13 10:57:32;;;;;;;15.43;7.88;;;;;;;3.37;42.96;100032.41;5073705;28;20078;-27
2024/01/13 10:59:59;;;;;;;17.08;8.45;;;;;;;4.05;41.54;100039.69;5073331;28;20056;-28
2024/01/13 11:02:26;;;;;;;17.23;8.65;;;;;;;3.49;42.50;100036.47;5073651;28;20020;-28
2024/01/13 11:04:52;;;;;;;16.00;8.60;;;;;;;3.62;42.58;99995.78;5073482;28;20028;-28
2024/01/13 11:07:19;;;;;;;18.10;8.05;;;;;;;3.48;43.10;100005.88;5073112;28;20060;-27
2024/01/13 11:09:46;;;;;;;18.67;8.73;;;;;;;3.79;42.70;100012.50;5072599;28;20052;-27
2024/01/13 11:12:27;;;;;;;20.60;9.10;;;;;;;3.39;43.12;99996.25;5073125;28;20485;-27